createdAt,value
2018-04-13T00:00:14.629Z,129.87
2018-04-13T00:00:46.278Z,117.55
2018-04-13T00:01:17.928Z,115.15
2018-04-13T00:01:49.575Z,102.45
2018-04-13T00:02:21.224Z,107.68
2018-04-13T00:02:52.849Z,95.12
2018-04-13T00:03:24.477Z,94.60
2018-04-13T00:03:56.155Z,90.47
2018-04-13T00:04:27.808Z,92.47
2018-04-13T00:04:59.438Z,98.20
2018-04-13T00:05:31.077Z,95.60
2018-04-13T00:06:02.736Z,91.57
2018-04-13T00:06:34.408Z,81.82
2018-04-13T00:07:06.049Z,95.15
2018-04-13T00:07:37.687Z,91.15
2018-04-13T00:08:09.347Z,85.57
2018-04-13T00:08:40.998Z,95.00
2018-04-13T00:09:12.640Z,94.90
2018-04-13T00:09:44.275Z,98.85
2018-04-13T00:10:15.953Z,92.28
2018-04-13T00:10:47.625Z,92.18
2018-04-13T00:11:19.267Z,86.78
2018-04-13T00:11:50.902Z,85.30
2018-04-13T00:12:22.555Z,92.18
2018-04-13T00:12:54.195Z,84.60
2018-04-13T00:13:25.831Z,81.15
2018-04-13T00:13:57.484Z,75.10
2018-04-13T00:14:29.130Z,77.20
2018-04-13T00:15:00.795Z,80.07
2018-04-13T00:15:32.415Z,73.25
2018-04-13T00:16:04.043Z,80.90
2018-04-13T00:16:35.779Z,80.18
2018-04-13T00:17:07.411Z,78.20
2018-04-13T00:17:39.092Z,77.57
2018-04-13T00:18:10.728Z,78.20
2018-04-13T00:18:42.355Z,77.30
2018-04-13T00:19:13.995Z,72.87
2018-04-13T00:19:45.658Z,72.07
2018-04-13T00:20:17.307Z,72.75
2018-04-13T00:20:48.968Z,75.97
2018-04-13T00:21:20.602Z,76.10
2018-04-13T00:21:52.240Z,82.55
2018-04-13T00:22:23.916Z,84.15
2018-04-13T00:22:55.536Z,76.85
2018-04-13T00:23:27.186Z,73.22
2018-04-13T00:23:58.826Z,77.87
2018-04-13T00:24:30.464Z,77.75
2018-04-13T00:25:02.140Z,82.70
2018-04-13T00:25:33.756Z,83.15
2018-04-13T00:26:05.415Z,77.65
2018-04-13T00:26:37.046Z,75.68
2018-04-13T00:27:08.666Z,82.68
2018-04-13T00:27:40.281Z,78.62
2018-04-13T00:28:11.926Z,76.30
2018-04-13T00:28:43.556Z,82.68
2018-04-13T00:29:15.193Z,80.20
2018-04-13T00:29:46.828Z,74.12
2018-04-13T00:30:18.487Z,77.07
2018-04-13T00:30:50.108Z,73.12
2018-04-13T00:31:21.736Z,80.97
2018-04-13T00:31:53.356Z,74.28
2018-04-13T00:32:24.997Z,73.68
2018-04-13T00:32:56.635Z,73.05
2018-04-13T00:33:28.300Z,74.95
2018-04-13T00:33:59.922Z,72.53
2018-04-13T00:34:31.576Z,64.97
2018-04-13T00:35:03.248Z,79.03
2018-04-13T00:35:34.893Z,70.45
2018-04-13T00:36:06.534Z,69.55
2018-04-13T00:36:38.150Z,72.80
2018-04-13T00:37:09.778Z,82.60
2018-04-13T00:37:41.413Z,85.57
2018-04-13T00:38:13.052Z,78.68
2018-04-13T00:38:44.738Z,73.43
2018-04-13T00:39:16.344Z,80.03
2018-04-13T00:39:47.998Z,75.22
2018-04-13T00:40:19.640Z,76.62
2018-04-13T00:40:51.306Z,79.15
2018-04-13T00:41:22.918Z,78.80
2018-04-13T00:41:54.549Z,79.32
2018-04-13T00:42:26.182Z,74.80
2018-04-13T00:42:57.853Z,72.47
2018-04-13T00:43:29.463Z,78.72
2018-04-13T00:44:01.093Z,83.62
2018-04-13T00:44:32.736Z,82.65
2018-04-13T00:45:04.390Z,77.68
2018-04-13T00:45:36.099Z,78.70
2018-04-13T00:46:07.726Z,76.40
2018-04-13T00:46:39.380Z,79.45
2018-04-13T00:47:10.988Z,73.35
2018-04-13T00:47:42.623Z,75.95
2018-04-13T00:48:14.286Z,79.72
2018-04-13T00:48:45.930Z,80.47
2018-04-13T00:49:17.590Z,79.00
2018-04-13T00:49:49.256Z,82.70
2018-04-13T00:50:20.901Z,81.18
2018-04-13T00:50:52.541Z,78.37
2018-04-13T00:51:24.196Z,75.90
2018-04-13T00:51:55.825Z,86.03
2018-04-13T00:52:27.454Z,71.35
2018-04-13T00:53:17.701Z,75.80
2018-04-13T00:53:49.372Z,78.20
2018-04-13T00:54:20.998Z,73.53
2018-04-13T00:54:52.642Z,73.55
2018-04-13T00:55:24.296Z,77.07
2018-04-13T00:55:55.970Z,74.37
2018-04-13T00:56:27.616Z,72.97
2018-04-13T00:56:59.242Z,74.75
2018-04-13T00:57:30.889Z,74.65
2018-04-13T00:58:02.546Z,72.15
2018-04-13T00:58:34.169Z,80.30
2018-04-13T00:59:05.824Z,79.37
2018-04-13T00:59:37.438Z,73.37
2018-04-13T01:00:09.074Z,71.45
2018-04-13T01:00:40.772Z,80.00
2018-04-13T01:01:12.403Z,75.70
2018-04-13T01:01:44.049Z,76.37
2018-04-13T01:02:15.757Z,74.80
2018-04-13T01:02:47.433Z,80.90
2018-04-13T01:03:19.070Z,80.65
2018-04-13T01:03:50.731Z,73.28
2018-04-13T01:04:22.419Z,74.40
2018-04-13T01:04:54.052Z,83.55
2018-04-13T01:05:25.707Z,82.20
2018-04-13T01:05:57.335Z,78.10
2018-04-13T01:06:28.999Z,80.55
2018-04-13T01:07:00.626Z,89.00
2018-04-13T01:07:32.267Z,81.63
2018-04-13T01:08:03.938Z,77.68
2018-04-13T01:08:35.621Z,82.40
2018-04-13T01:09:07.258Z,79.75
2018-04-13T01:09:38.919Z,73.47
2018-04-13T01:10:10.579Z,76.78
2018-04-13T01:10:42.223Z,73.60
2018-04-13T01:11:13.874Z,81.22
2018-04-13T01:11:45.513Z,76.43
2018-04-13T01:12:17.142Z,82.28
2018-04-13T01:12:48.776Z,82.82
2018-04-13T01:13:20.397Z,84.18
2018-04-13T01:13:52.016Z,75.47
2018-04-13T01:14:23.753Z,77.47
2018-04-13T01:14:55.388Z,84.60
2018-04-13T01:15:27.030Z,83.85
2018-04-13T01:15:58.671Z,81.60
2018-04-13T01:16:30.353Z,78.35
2018-04-13T01:17:01.984Z,84.28
2018-04-13T01:17:33.604Z,84.68
2018-04-13T01:18:05.280Z,86.57
2018-04-13T01:18:36.907Z,81.10
2018-04-13T01:19:08.553Z,81.05
2018-04-13T01:19:40.195Z,84.35
2018-04-13T01:20:11.843Z,81.28
2018-04-13T01:20:43.497Z,87.00
2018-04-13T01:21:15.147Z,79.12
2018-04-13T01:21:46.804Z,85.45
2018-04-13T01:22:18.435Z,84.00
2018-04-13T01:22:50.091Z,85.38
2018-04-13T01:23:21.763Z,78.62
2018-04-13T01:23:53.413Z,84.87
2018-04-13T01:24:25.068Z,88.50
2018-04-13T01:24:56.749Z,94.95
2018-04-13T01:25:28.380Z,85.75
2018-04-13T01:26:00.025Z,83.07
2018-04-13T01:26:31.650Z,91.80
2018-04-13T01:27:03.287Z,86.55
2018-04-13T01:27:34.923Z,84.97
2018-04-13T01:28:06.556Z,80.53
2018-04-13T01:28:38.176Z,85.85
2018-04-13T01:29:09.816Z,86.00
2018-04-13T01:29:41.446Z,80.72
2018-04-13T01:30:13.099Z,90.15
2018-04-13T01:30:44.761Z,83.03
2018-04-13T01:31:16.396Z,82.10
2018-04-13T01:31:48.020Z,87.65
2018-04-13T01:32:19.678Z,87.28
2018-04-13T01:32:51.296Z,85.70
2018-04-13T01:33:22.948Z,77.50
2018-04-13T01:33:54.587Z,80.60
2018-04-13T01:34:26.228Z,75.40
2018-04-13T01:34:57.848Z,84.70
2018-04-13T01:35:29.480Z,85.38
2018-04-13T01:36:01.112Z,80.78
2018-04-13T01:36:32.736Z,84.57
2018-04-13T01:37:04.371Z,81.65
2018-04-13T01:37:36.027Z,86.78
2018-04-13T01:38:07.647Z,85.53
2018-04-13T01:38:39.270Z,85.12
2018-04-13T01:39:10.918Z,84.62
2018-04-13T01:39:42.548Z,77.55
2018-04-13T01:40:14.171Z,85.45
2018-04-13T01:40:45.807Z,87.15
2018-04-13T01:41:17.428Z,88.35
2018-04-13T01:41:49.062Z,90.57
2018-04-13T01:42:20.703Z,89.13
2018-04-13T01:42:52.332Z,95.85
2018-04-13T01:43:23.963Z,89.47
2018-04-13T01:43:55.594Z,94.97
2018-04-13T01:44:27.254Z,90.95
2018-04-13T01:44:58.913Z,94.07
2018-04-13T01:45:30.559Z,94.87
2018-04-13T01:46:02.233Z,91.03
2018-04-13T01:46:33.881Z,91.80
2018-04-13T01:47:05.514Z,99.15
2018-04-13T01:47:37.146Z,87.97
2018-04-13T01:48:08.779Z,99.10
2018-04-13T01:48:40.428Z,97.43
2018-04-13T01:49:12.047Z,94.37
2018-04-13T01:49:43.672Z,95.87
2018-04-13T01:50:15.300Z,103.25
2018-04-13T01:50:46.939Z,102.85
2018-04-13T01:51:18.564Z,99.10
2018-04-13T01:51:50.232Z,96.07
2018-04-13T01:52:21.876Z,93.37
2018-04-13T01:52:53.529Z,96.93
2018-04-13T01:53:25.189Z,95.78
2018-04-13T01:53:56.826Z,95.10
2018-04-13T01:54:28.480Z,99.45
2018-04-13T01:55:00.120Z,94.55
2018-04-13T01:55:31.759Z,97.53
2018-04-13T01:56:03.445Z,94.72
2018-04-13T01:56:35.071Z,89.13
2018-04-13T01:57:06.726Z,100.07
2018-04-13T01:57:38.372Z,100.28
2018-04-13T01:58:10.011Z,99.18
2018-04-13T01:58:41.652Z,98.03
2018-04-13T01:59:13.301Z,104.18
2018-04-13T01:59:44.938Z,90.97
2018-04-13T02:00:16.606Z,96.28
2018-04-13T02:00:48.222Z,98.28
2018-04-13T02:01:19.861Z,95.65
2018-04-13T02:01:51.504Z,95.00
2018-04-13T02:02:23.202Z,96.93
2018-04-13T02:02:54.862Z,90.65
2018-04-13T02:03:26.508Z,95.32
2018-04-13T02:03:58.159Z,93.95
2018-04-13T02:04:29.790Z,99.78
2018-04-13T02:05:01.414Z,88.87
2018-04-13T02:05:33.047Z,100.40
2018-04-13T02:06:04.716Z,94.93
2018-04-13T02:06:36.378Z,87.85
2018-04-13T02:07:08.053Z,94.78
2018-04-13T02:07:39.696Z,92.93
2018-04-13T02:08:11.343Z,96.28
2018-04-13T02:08:42.968Z,99.50
2018-04-13T02:09:14.608Z,94.03
2018-04-13T02:09:46.268Z,89.05
2018-04-13T02:10:17.915Z,85.82
2018-04-13T02:10:49.582Z,94.30
2018-04-13T02:11:21.224Z,92.12
2018-04-13T02:11:52.854Z,92.07
2018-04-13T02:12:24.520Z,88.00
2018-04-13T02:12:56.172Z,84.85
2018-04-13T02:13:27.777Z,88.05
2018-04-13T02:13:59.430Z,89.47
2018-04-13T02:14:31.082Z,92.10
2018-04-13T02:15:02.782Z,90.80
2018-04-13T02:15:34.423Z,88.75
2018-04-13T02:16:06.070Z,86.45
2018-04-13T02:16:37.747Z,89.43
2018-04-13T02:17:09.417Z,89.50
2018-04-13T02:17:41.086Z,88.70
2018-04-13T02:18:12.706Z,89.15
2018-04-13T02:18:44.334Z,88.60
2018-04-13T02:19:15.938Z,92.65
2018-04-13T02:19:47.590Z,86.30
2018-04-13T02:20:19.241Z,89.28
2018-04-13T02:20:50.904Z,84.53
2018-04-13T02:21:22.549Z,90.30
2018-04-13T02:21:54.165Z,90.68
2018-04-13T02:22:25.839Z,88.47
2018-04-13T02:22:57.490Z,91.70
2018-04-13T02:23:29.122Z,91.03
2018-04-13T02:24:00.755Z,88.18
2018-04-13T02:24:32.421Z,87.70
2018-04-13T02:25:04.344Z,85.28
2018-04-13T02:25:36.281Z,85.43
2018-04-13T02:26:07.899Z,84.50
2018-04-13T02:26:39.555Z,82.20
2018-04-13T02:27:11.187Z,82.10
2018-04-13T02:27:42.823Z,83.68
2018-04-13T02:28:14.452Z,88.37
2018-04-13T02:28:46.079Z,80.62
2018-04-13T02:29:17.691Z,78.57
2018-04-13T02:29:49.353Z,77.50
2018-04-13T02:30:21.005Z,83.32
2018-04-13T02:30:52.641Z,79.72
2018-04-13T02:31:24.269Z,78.25
2018-04-13T02:31:55.893Z,81.32
2018-04-13T02:32:27.511Z,85.07
2018-04-13T02:32:59.185Z,75.43
2018-04-13T02:33:30.829Z,81.87
2018-04-13T02:34:02.483Z,79.80
2018-04-13T02:34:34.152Z,78.47
2018-04-13T02:35:05.798Z,86.40
2018-04-13T02:35:37.474Z,85.47
2018-04-13T02:36:09.137Z,86.22
2018-04-13T02:36:40.773Z,79.57
2018-04-13T02:37:12.419Z,80.35
2018-04-13T02:37:44.050Z,84.90
2018-04-13T02:38:15.721Z,77.40
2018-04-13T02:38:47.355Z,86.78
2018-04-13T02:39:18.997Z,78.28
2018-04-13T02:39:50.639Z,82.53
2018-04-13T02:40:22.262Z,81.00
2018-04-13T02:40:53.907Z,87.40
2018-04-13T02:41:25.511Z,82.12
2018-04-13T02:41:57.132Z,83.95
2018-04-13T02:42:28.770Z,83.80
2018-04-13T02:43:00.432Z,81.95
2018-04-13T02:43:32.065Z,78.85
2018-04-13T02:44:03.704Z,85.78
2018-04-13T02:44:35.364Z,88.05
2018-04-13T02:45:07.000Z,80.75
2018-04-13T02:45:38.624Z,87.05
2018-04-13T02:46:10.250Z,88.87
2018-04-13T02:46:41.876Z,81.40
2018-04-13T02:47:13.511Z,81.72
2018-04-13T02:47:45.142Z,82.82
2018-04-13T02:48:16.804Z,89.47
2018-04-13T02:48:48.485Z,85.95
2018-04-13T02:49:20.143Z,82.78
2018-04-13T02:49:51.760Z,85.43
2018-04-13T02:50:23.391Z,85.07
2018-04-13T02:50:55.033Z,79.07
2018-04-13T02:51:26.676Z,81.28
2018-04-13T02:51:58.327Z,85.15
2018-04-13T02:52:30.002Z,89.57
2018-04-13T02:53:01.619Z,88.82
2018-04-13T02:53:33.254Z,85.62
2018-04-13T02:54:04.912Z,85.43
2018-04-13T02:54:36.566Z,83.75
2018-04-13T02:55:08.186Z,87.40
2018-04-13T02:55:39.868Z,78.18
2018-04-13T02:56:11.506Z,80.80
2018-04-13T02:56:43.158Z,82.65
2018-04-13T02:57:14.786Z,80.03
2018-04-13T02:57:46.416Z,83.10
2018-04-13T02:58:18.046Z,87.72
2018-04-13T02:58:49.692Z,84.20
2018-04-13T02:59:21.343Z,85.38
2018-04-13T02:59:52.966Z,83.40
2018-04-13T03:00:24.608Z,82.22
2018-04-13T03:00:56.252Z,86.45
2018-04-13T03:01:27.916Z,83.12
2018-04-13T03:01:59.551Z,83.50
2018-04-13T03:02:31.185Z,89.57
2018-04-13T03:03:02.835Z,77.28
2018-04-13T03:03:34.466Z,78.50
2018-04-13T03:04:06.110Z,82.50
2018-04-13T03:04:37.737Z,80.95
2018-04-13T03:05:09.383Z,81.30
2018-04-13T03:05:41.041Z,87.10
2018-04-13T03:06:12.679Z,81.10
2018-04-13T03:06:44.307Z,80.72
2018-04-13T03:07:15.955Z,83.53
2018-04-13T03:07:47.586Z,82.75
2018-04-13T03:08:19.236Z,84.00
2018-04-13T03:08:50.865Z,82.80
2018-04-13T03:09:22.504Z,81.68
2018-04-13T03:09:54.178Z,86.15
2018-04-13T03:10:25.827Z,78.07
2018-04-13T03:10:57.462Z,85.05
2018-04-13T03:11:29.096Z,84.40
2018-04-13T03:12:00.736Z,83.75
2018-04-13T03:12:32.362Z,81.28
2018-04-13T03:13:03.978Z,85.20
2018-04-13T03:13:35.610Z,80.87
2018-04-13T03:14:07.255Z,82.43
2018-04-13T03:14:38.880Z,78.75
2018-04-13T03:15:10.528Z,88.65
2018-04-13T03:15:42.160Z,80.25
2018-04-13T03:16:13.831Z,82.47
2018-04-13T03:16:45.490Z,83.32
2018-04-13T03:17:17.132Z,82.97
2018-04-13T03:17:48.791Z,83.95
2018-04-13T03:18:20.413Z,80.30
2018-04-13T03:18:52.094Z,85.25
2018-04-13T03:19:23.686Z,85.45
2018-04-13T03:19:55.337Z,83.85
2018-04-13T03:20:26.982Z,90.10
2018-04-13T03:20:58.602Z,90.50
2018-04-13T03:21:30.215Z,84.80
2018-04-13T03:22:01.857Z,82.53
2018-04-13T03:22:33.502Z,83.85
2018-04-13T03:23:05.164Z,89.75
2018-04-13T03:23:36.778Z,83.28
2018-04-13T03:24:08.420Z,81.53
2018-04-13T03:24:40.040Z,76.95
2018-04-13T03:25:11.680Z,83.07
2018-04-13T03:25:43.327Z,82.97
2018-04-13T03:26:14.984Z,83.65
2018-04-13T03:26:46.616Z,80.05
2018-04-13T03:27:18.224Z,76.12
2018-04-13T03:27:49.876Z,77.97
2018-04-13T03:28:21.508Z,81.97
2018-04-13T03:28:53.142Z,79.00
2018-04-13T03:29:24.768Z,80.25
2018-04-13T03:29:56.405Z,88.03
2018-04-13T03:30:28.036Z,81.95
2018-04-13T03:30:59.700Z,85.18
2018-04-13T03:31:31.320Z,84.40
2018-04-13T03:32:02.956Z,87.25
2018-04-13T03:32:34.590Z,84.70
2018-04-13T03:33:06.222Z,79.03
2018-04-13T03:33:37.869Z,79.60
2018-04-13T03:34:09.516Z,80.70
2018-04-13T03:34:41.132Z,78.05
2018-04-13T03:35:12.762Z,74.50
2018-04-13T03:35:44.412Z,78.97
2018-04-13T03:36:16.051Z,74.62
2018-04-13T03:36:47.679Z,75.62
2018-04-13T03:37:19.307Z,77.37
2018-04-13T03:37:50.950Z,79.87
2018-04-13T03:38:22.568Z,79.68
2018-04-13T03:38:54.198Z,80.70
2018-04-13T03:39:25.875Z,85.10
2018-04-13T03:39:57.501Z,79.47
2018-04-13T03:40:29.104Z,74.37
2018-04-13T03:41:00.727Z,80.07
2018-04-13T03:41:32.396Z,81.47
2018-04-13T03:42:04.065Z,81.78
2018-04-13T03:42:35.708Z,76.30
2018-04-13T03:43:07.331Z,79.80
2018-04-13T03:43:38.981Z,81.45
2018-04-13T03:44:10.614Z,81.00
2018-04-13T03:44:42.251Z,81.97
2018-04-13T03:45:13.883Z,79.53
2018-04-13T03:45:45.510Z,79.12
2018-04-13T03:46:17.133Z,87.15
2018-04-13T03:46:48.801Z,81.57
2018-04-13T03:47:20.428Z,87.12
2018-04-13T03:47:52.064Z,79.32
2018-04-13T03:48:23.690Z,81.03
2018-04-13T03:48:55.332Z,85.55
2018-04-13T03:49:27.055Z,78.70
2018-04-13T03:49:58.684Z,75.78
2018-04-13T03:50:30.310Z,78.32
2018-04-13T03:51:01.948Z,77.57
2018-04-13T03:51:33.604Z,82.78
2018-04-13T03:52:05.274Z,81.97
2018-04-13T03:52:36.891Z,78.62
2018-04-13T03:53:08.547Z,74.18
2018-04-13T03:53:40.200Z,76.45
2018-04-13T03:54:11.840Z,90.00
2018-04-13T03:54:43.506Z,91.18
2018-04-13T03:55:15.129Z,80.28
2018-04-13T03:55:46.761Z,88.80
2018-04-13T03:56:18.401Z,89.70
2018-04-13T03:56:50.014Z,86.15
2018-04-13T03:57:21.624Z,88.62
2018-04-13T03:57:53.246Z,87.55
2018-04-13T03:58:24.895Z,94.75
2018-04-13T03:58:56.533Z,94.25
2018-04-13T03:59:28.156Z,93.80
2018-04-13T03:59:59.799Z,96.40
2018-04-13T04:00:31.451Z,97.82
2018-04-13T04:01:03.087Z,107.75
2018-04-13T04:01:34.715Z,112.78
2018-04-13T04:02:06.372Z,103.82
2018-04-13T04:02:37.973Z,108.05
2018-04-13T04:03:09.575Z,106.87
2018-04-13T04:03:41.212Z,105.12
2018-04-13T04:04:12.865Z,100.85
2018-04-13T04:04:44.502Z,101.03
2018-04-13T04:05:16.129Z,102.68
2018-04-13T04:05:47.771Z,98.53
2018-04-13T04:06:19.403Z,96.87
2018-04-13T04:06:51.055Z,91.93
2018-04-13T04:07:22.677Z,91.37
2018-04-13T04:07:54.325Z,96.25
2018-04-13T04:08:25.953Z,92.68
2018-04-13T04:08:57.603Z,90.15
2018-04-13T04:09:29.257Z,100.35
2018-04-13T04:10:00.881Z,94.13
2018-04-13T04:10:32.553Z,104.72
2018-04-13T04:11:04.189Z,105.60
2018-04-13T04:11:35.815Z,101.47
2018-04-13T04:12:07.447Z,101.72
2018-04-13T04:12:39.103Z,101.38
2018-04-13T04:13:10.747Z,98.43
2018-04-13T04:13:42.384Z,98.95
2018-04-13T04:14:14.004Z,92.30
2018-04-13T04:14:45.638Z,101.38
2018-04-13T04:15:17.280Z,95.30
2018-04-13T04:15:48.924Z,89.03
2018-04-13T04:16:20.582Z,90.70
2018-04-13T04:16:52.227Z,92.78
2018-04-13T04:17:23.850Z,99.05
2018-04-13T04:17:55.483Z,97.22
2018-04-13T04:18:27.106Z,89.68
2018-04-13T04:18:58.748Z,90.90
2018-04-13T04:19:49.080Z,91.47
2018-04-13T04:20:39.340Z,85.30
2018-04-13T04:21:29.410Z,85.45
2018-04-13T04:22:29.253Z,88.65
2018-04-13T04:23:19.325Z,96.97
2018-04-13T04:24:09.491Z,93.07
2018-04-13T04:24:59.713Z,102.55
2018-04-13T04:26:01.555Z,104.97
2018-04-13T04:26:46.377Z,99.37
2018-04-13T04:27:18.016Z,93.37
2018-04-13T04:27:49.636Z,101.30
2018-04-13T04:28:21.282Z,102.07
2018-04-13T04:28:52.906Z,96.53
2018-04-13T04:29:24.538Z,89.18
2018-04-13T04:29:56.176Z,92.88
2018-04-13T04:30:27.786Z,90.28
2018-04-13T04:30:59.420Z,90.28
2018-04-13T04:31:31.052Z,89.53
2018-04-13T04:32:02.698Z,80.28
2018-04-13T04:32:34.350Z,92.65
2018-04-13T04:33:05.977Z,94.03
2018-04-13T04:33:37.628Z,86.87
2018-04-13T04:34:09.274Z,89.82
2018-04-13T04:34:40.898Z,96.55
2018-04-13T04:35:12.530Z,93.05
2018-04-13T04:35:44.163Z,96.78
2018-04-13T04:36:15.784Z,90.90
2018-04-13T04:36:47.408Z,87.80
2018-04-13T04:37:19.020Z,84.55
2018-04-13T04:37:50.702Z,88.57
2018-04-13T04:38:22.359Z,88.90
2018-04-13T04:38:53.991Z,87.30
2018-04-13T04:39:25.618Z,82.32
2018-04-13T04:39:57.248Z,83.35
2018-04-13T04:40:28.892Z,87.65
2018-04-13T04:41:00.537Z,81.87
2018-04-13T04:41:32.188Z,90.75
2018-04-13T04:42:03.848Z,89.15
2018-04-13T04:42:35.490Z,89.60
2018-04-13T04:43:07.116Z,101.50
2018-04-13T04:43:38.744Z,90.78
2018-04-13T04:44:10.388Z,92.90
2018-04-13T04:44:42.020Z,93.50
2018-04-13T04:45:13.909Z,111.82
2018-04-13T04:45:45.536Z,110.65
2018-04-13T04:46:17.218Z,108.70
2018-04-13T04:46:48.834Z,110.15
2018-04-13T04:47:20.468Z,117.25
2018-04-13T04:47:52.095Z,121.85
2018-04-13T04:48:25.680Z,126.00
2018-04-13T04:48:57.286Z,143.77
2018-04-13T04:49:28.952Z,149.45
2018-04-13T04:50:00.584Z,163.00
2018-04-13T04:50:32.208Z,164.27
2018-04-13T04:51:03.854Z,158.90
2018-04-13T04:51:35.491Z,165.70
2018-04-13T04:52:07.123Z,170.75
2018-04-13T04:52:38.742Z,164.50
2018-04-13T04:53:10.349Z,157.27
2018-04-13T04:53:41.969Z,162.60
2018-04-13T04:54:13.614Z,151.18
2018-04-13T04:54:45.249Z,146.82
2018-04-13T04:55:16.882Z,143.00
2018-04-13T04:55:48.523Z,141.43
2018-04-13T04:56:20.157Z,140.40
2018-04-13T04:56:51.783Z,150.20
2018-04-13T04:57:23.411Z,132.82
2018-04-13T04:57:55.038Z,132.45
2018-04-13T04:58:26.706Z,134.68
2018-04-13T04:58:58.330Z,114.30
2018-04-13T04:59:29.952Z,111.90
2018-04-13T05:00:01.585Z,97.93
2018-04-13T05:00:33.233Z,101.20
2018-04-13T05:01:04.843Z,106.97
2018-04-13T05:01:36.476Z,101.22
2018-04-13T05:02:08.145Z,111.47
2018-04-13T05:02:39.760Z,103.93
2018-04-13T05:03:11.419Z,99.37
2018-04-13T05:03:43.094Z,104.65
2018-04-13T05:04:14.724Z,97.82
2018-04-13T05:04:46.370Z,100.65
2018-04-13T05:05:18.000Z,100.12
2018-04-13T05:05:49.633Z,100.82
2018-04-13T05:06:21.274Z,108.05
2018-04-13T05:06:52.910Z,102.28
2018-04-13T05:07:24.555Z,101.20
2018-04-13T05:07:56.182Z,99.00
2018-04-13T05:08:27.820Z,97.12
2018-04-13T05:08:59.479Z,98.18
2018-04-13T05:09:31.113Z,103.55
2018-04-13T05:10:02.798Z,109.35
2018-04-13T05:10:34.402Z,110.47
2018-04-13T05:11:06.050Z,98.90
2018-04-13T05:11:37.702Z,93.75
2018-04-13T05:12:09.358Z,87.95
2018-04-13T05:12:40.991Z,96.32
2018-04-13T05:13:12.612Z,99.47
2018-04-13T05:13:44.249Z,86.75
2018-04-13T05:14:15.886Z,93.37
2018-04-13T05:14:47.498Z,87.12
2018-04-13T05:15:19.118Z,93.87
2018-04-13T05:15:50.742Z,100.60
2018-04-13T05:16:22.396Z,86.97
2018-04-13T05:16:54.023Z,87.88
2018-04-13T05:17:25.642Z,95.38
2018-04-13T05:17:57.278Z,98.78
2018-04-13T05:18:28.916Z,93.75
2018-04-13T05:19:00.538Z,102.00
2018-04-13T05:19:32.207Z,109.45
2018-04-13T05:20:03.859Z,94.93
2018-04-13T05:20:35.484Z,98.65
2018-04-13T05:21:07.129Z,99.50
2018-04-13T05:21:38.772Z,93.60
2018-04-13T05:22:10.404Z,93.45
2018-04-13T05:22:42.024Z,90.18
2018-04-13T05:23:13.690Z,92.50
2018-04-13T05:23:45.332Z,86.60
2018-04-13T05:24:16.981Z,88.70
2018-04-13T05:24:48.690Z,84.22
2018-04-13T05:25:20.308Z,92.40
2018-04-13T05:25:51.940Z,110.68
2018-04-13T05:26:23.564Z,89.95
2018-04-13T05:26:55.224Z,95.62
2018-04-13T05:27:26.857Z,102.07
2018-04-13T05:27:58.520Z,114.82
2018-04-13T05:28:30.141Z,114.70
2018-04-13T05:29:01.825Z,121.40
2018-04-13T05:29:33.451Z,122.03
2018-04-13T05:30:05.127Z,134.18
2018-04-13T05:30:36.762Z,139.77
2018-04-13T05:31:08.392Z,120.37
2018-04-13T05:31:40.019Z,112.22
2018-04-13T05:32:11.639Z,121.37
2018-04-13T05:32:43.299Z,130.55
2018-04-13T05:33:14.924Z,116.32
2018-04-13T05:33:46.577Z,124.50
2018-04-13T05:34:18.198Z,139.98
2018-04-13T05:34:49.823Z,142.02
2018-04-13T05:35:21.478Z,144.40
2018-04-13T05:35:53.083Z,157.25
2018-04-13T05:36:24.713Z,147.23
2018-04-13T05:36:56.335Z,167.37
2018-04-13T05:37:27.961Z,156.00
2018-04-13T05:37:59.574Z,157.07
2018-04-13T05:38:31.209Z,178.27
2018-04-13T05:39:02.914Z,171.00
2018-04-13T05:39:34.585Z,174.20
2018-04-13T05:40:06.219Z,194.75
2018-04-13T05:40:37.876Z,185.35
2018-04-13T05:41:09.525Z,192.25
2018-04-13T05:41:41.145Z,191.20
2018-04-13T05:42:12.760Z,207.23
2018-04-13T05:42:44.397Z,184.18
2018-04-13T05:43:16.029Z,193.87
2018-04-13T05:43:47.658Z,198.18
2018-04-13T05:44:19.304Z,205.05
2018-04-13T05:44:50.935Z,195.35
2018-04-13T05:45:22.568Z,197.75
2018-04-13T05:45:54.199Z,202.60
2018-04-13T05:46:25.831Z,185.82
2018-04-13T05:46:57.449Z,191.65
2018-04-13T05:47:29.085Z,193.02
2018-04-13T05:48:00.811Z,217.62
2018-04-13T05:48:32.463Z,189.32
2018-04-13T05:49:04.110Z,212.35
2018-04-13T05:49:35.755Z,197.02
2018-04-13T05:50:07.377Z,198.68
2018-04-13T05:50:39.016Z,229.35
2018-04-13T05:51:10.680Z,218.35
2018-04-13T05:51:42.309Z,205.90
2018-04-13T05:52:13.945Z,203.18
2018-04-13T05:52:45.618Z,197.13
2018-04-13T05:53:17.273Z,208.45
2018-04-13T05:53:48.942Z,199.73
2018-04-13T05:54:20.554Z,221.70
2018-04-13T05:54:52.202Z,212.82
2018-04-13T05:55:23.870Z,218.48
2018-04-13T05:55:55.502Z,208.27
2018-04-13T05:56:27.144Z,212.82
2018-04-13T05:56:58.783Z,208.80
2018-04-13T05:57:45.332Z,200.18
2018-04-13T05:58:16.998Z,188.55
2018-04-13T05:58:48.640Z,177.05
2018-04-13T05:59:20.270Z,188.50
2018-04-13T05:59:51.898Z,183.37
2018-04-13T06:00:23.567Z,181.75
2018-04-13T06:00:55.244Z,191.52
2018-04-13T06:01:26.915Z,184.85
2018-04-13T06:01:58.550Z,180.87
2018-04-13T06:02:30.216Z,175.20
2018-04-13T06:03:01.872Z,181.70
2018-04-13T06:03:33.508Z,173.15
2018-04-13T06:04:05.174Z,195.73
2018-04-13T06:04:36.832Z,180.57
2018-04-13T06:05:08.484Z,201.50
2018-04-13T06:05:40.120Z,188.90
2018-04-13T06:06:11.752Z,182.73
2018-04-13T06:06:43.430Z,199.80
2018-04-13T06:07:15.057Z,208.15
2018-04-13T06:07:46.703Z,178.95
2018-04-13T06:08:18.332Z,198.70
2018-04-13T06:08:50.054Z,204.00
2018-04-13T06:09:21.703Z,206.93
2018-04-13T06:09:53.525Z,197.37
2018-04-13T06:10:25.165Z,209.18
2018-04-13T06:10:56.793Z,207.82
2018-04-13T06:11:28.480Z,203.80
2018-04-13T06:12:00.123Z,201.70
2018-04-13T06:12:31.733Z,205.18
2018-04-13T06:13:03.362Z,211.27
2018-04-13T06:13:34.996Z,203.30
2018-04-13T06:14:06.628Z,204.35
2018-04-13T06:14:38.261Z,198.50
2018-04-13T06:15:09.888Z,196.25
2018-04-13T06:15:41.519Z,195.65
2018-04-13T06:16:13.170Z,202.73
2018-04-13T06:16:44.808Z,217.13
2018-04-13T06:17:16.464Z,219.27
2018-04-13T06:17:48.084Z,218.18
2018-04-13T06:18:19.718Z,211.45
2018-04-13T06:18:51.363Z,218.73
2018-04-13T06:19:22.982Z,217.20
2018-04-13T06:19:54.662Z,220.37
2018-04-13T06:20:26.291Z,209.57
2018-04-13T06:20:57.934Z,201.10
2018-04-13T06:21:29.578Z,210.23
2018-04-13T06:22:01.208Z,218.70
2018-04-13T06:22:32.842Z,213.73
2018-04-13T06:23:04.467Z,222.98
2018-04-13T06:23:36.144Z,223.55
2018-04-13T06:24:07.787Z,226.77
2018-04-13T06:24:39.416Z,217.37
2018-04-13T06:25:11.040Z,198.48
2018-04-13T06:25:42.674Z,214.80
2018-04-13T06:26:14.301Z,221.55
2018-04-13T06:26:45.923Z,210.63
2018-04-13T06:27:17.548Z,201.48
2018-04-13T06:27:49.186Z,216.23
2018-04-13T06:28:20.845Z,195.38
2018-04-13T06:28:52.737Z,208.35
2018-04-13T06:29:24.388Z,195.25
2018-04-13T06:29:56.030Z,201.02
2018-04-13T06:30:27.654Z,183.85
2018-04-13T06:30:59.298Z,193.48
2018-04-13T06:31:30.930Z,197.32
2018-04-13T06:32:02.594Z,200.43
2018-04-13T06:32:34.229Z,195.23
2018-04-13T06:33:05.885Z,192.90
2018-04-13T06:33:37.510Z,208.93
2018-04-13T06:34:09.132Z,206.55
2018-04-13T06:34:40.766Z,205.10
2018-04-13T06:35:12.388Z,200.38
2018-04-13T06:35:44.004Z,196.68
2018-04-13T06:36:15.652Z,210.52
2018-04-13T06:36:47.320Z,211.98
2018-04-13T06:37:18.959Z,224.23
2018-04-13T06:37:50.590Z,202.02
2018-04-13T06:38:22.224Z,220.75
2018-04-13T06:38:53.874Z,199.20
2018-04-13T06:39:25.534Z,223.25
2018-04-13T06:39:57.196Z,197.07
2018-04-13T06:40:28.818Z,224.73
2018-04-13T06:41:00.458Z,217.87
2018-04-13T06:41:32.123Z,217.05
2018-04-13T06:42:03.759Z,213.60
2018-04-13T06:42:35.398Z,217.52
2018-04-13T06:43:07.052Z,215.32
2018-04-13T06:43:38.738Z,215.82
2018-04-13T06:44:10.338Z,223.45
2018-04-13T06:44:41.963Z,200.93
2018-04-13T06:45:13.624Z,210.95
2018-04-13T06:45:45.257Z,212.40
2018-04-13T06:46:16.898Z,202.93
2018-04-13T06:46:48.824Z,217.43
2018-04-13T06:47:20.449Z,191.60